createdAt,value
2022-10-18T00:01:06.414Z,15.10
2022-10-18T00:03:40.376Z,14.40
2022-10-18T00:06:11.866Z,14.40
2022-10-18T00:08:39.988Z,19.80
2022-10-18T00:11:08.353Z,15.50
2022-10-18T00:13:37.241Z,16.00
2022-10-18T00:16:10.868Z,15.30
2022-10-18T00:18:38.857Z,16.60
2022-10-18T00:21:11.551Z,16.20
2022-10-18T00:23:39.495Z,19.10
2022-10-18T00:26:19.461Z,17.40
2022-10-18T00:28:51.856Z,16.50
2022-10-18T00:31:32.017Z,18.70
2022-10-18T00:34:02.218Z,20.10
2022-10-18T00:36:32.523Z,18.10
2022-10-18T00:39:01.343Z,21.10
2022-10-18T00:41:31.560Z,21.80
2022-10-18T00:44:07.311Z,17.80
2022-10-18T00:46:37.567Z,21.50
2022-10-18T00:49:17.579Z,23.30
2022-10-18T00:51:52.013Z,19.00
2022-10-18T00:54:21.254Z,27.30
2022-10-18T00:56:49.890Z,23.30
2022-10-18T00:59:19.208Z,23.60
2022-10-18T01:01:47.447Z,27.30
2022-10-18T01:04:16.956Z,24.30
2022-10-18T01:07:22.672Z,23.80
2022-10-18T01:09:53.291Z,19.10
2022-10-18T01:12:52.216Z,23.00
2022-10-18T01:15:30.667Z,22.50
2022-10-18T01:18:10.682Z,25.70
2022-10-18T01:21:07.810Z,27.10
2022-10-18T01:24:09.505Z,22.10
2022-10-18T01:26:59.333Z,20.50
2022-10-18T01:29:49.822Z,23.30
2022-10-18T01:32:26.648Z,24.00
2022-10-18T01:35:01.364Z,23.00
2022-10-18T01:37:31.782Z,18.60
2022-10-18T01:40:03.694Z,24.00
2022-10-18T01:42:32.607Z,27.50
2022-10-18T01:45:03.291Z,21.40
2022-10-18T01:47:31.781Z,19.60
2022-10-18T01:50:06.432Z,21.30
2022-10-18T01:52:34.511Z,22.50
2022-10-18T01:55:03.760Z,22.80
2022-10-18T01:57:45.242Z,25.70
2022-10-18T02:04:53.972Z,25.50
2022-10-18T02:07:36.637Z,23.10
2022-10-18T02:10:22.933Z,29.00
2022-10-18T02:12:52.539Z,25.30
2022-10-18T02:15:24.573Z,23.20
2022-10-18T02:17:55.968Z,24.50
2022-10-18T02:20:26.242Z,24.10
2022-10-18T02:22:56.760Z,26.00
2022-10-18T02:25:28.174Z,27.00
2022-10-18T02:27:56.697Z,28.20
2022-10-18T02:30:41.126Z,33.80
2022-10-18T02:33:28.087Z,31.70
2022-10-18T02:36:02.741Z,30.60
2022-10-18T02:38:32.474Z,34.80
2022-10-18T02:41:00.305Z,33.50
2022-10-18T02:43:28.163Z,31.80
2022-10-18T02:45:56.015Z,29.50
2022-10-18T02:48:23.920Z,31.40
2022-10-18T02:50:51.798Z,32.40
2022-10-18T02:53:19.622Z,34.00
2022-10-18T02:55:47.451Z,30.40
2022-10-18T02:58:15.322Z,33.10
2022-10-18T03:00:43.200Z,32.80
2022-10-18T03:03:10.996Z,30.60
2022-10-18T03:05:38.824Z,28.60
2022-10-18T03:08:06.772Z,27.40
2022-10-18T03:10:34.667Z,29.10
2022-10-18T03:13:02.437Z,28.20
2022-10-18T03:15:30.291Z,27.60
2022-10-18T03:17:58.216Z,27.60
2022-10-18T03:20:26.064Z,34.20
2022-10-18T03:22:53.834Z,28.10
2022-10-18T03:25:22.033Z,28.30
2022-10-18T03:27:49.810Z,28.00
2022-10-18T03:30:17.715Z,27.60
2022-10-18T03:32:45.604Z,26.80
2022-10-18T03:35:13.452Z,30.80
2022-10-18T03:37:41.409Z,34.80
2022-10-18T03:40:09.555Z,26.10
2022-10-18T03:42:37.399Z,30.20
2022-10-18T03:45:06.376Z,24.10
2022-10-18T03:47:34.965Z,26.30
2022-10-18T03:50:02.967Z,24.60
2022-10-18T03:52:31.039Z,21.20
2022-10-18T03:54:59.251Z,23.30
2022-10-18T03:57:27.084Z,20.90
2022-10-18T03:59:54.928Z,26.00
2022-10-18T04:02:22.671Z,30.20
2022-10-18T04:04:50.595Z,24.60
2022-10-18T04:07:18.796Z,23.80
2022-10-18T04:09:46.659Z,23.00
2022-10-18T04:12:14.681Z,25.90
2022-10-18T04:14:42.524Z,23.80
2022-10-18T04:17:10.377Z,25.00
2022-10-18T04:19:38.117Z,27.10
2022-10-18T04:22:05.934Z,25.90
2022-10-18T04:24:33.800Z,31.80
2022-10-18T04:27:01.665Z,31.70
2022-10-18T04:29:29.571Z,28.10
2022-10-18T04:31:57.368Z,30.20
2022-10-18T04:34:25.469Z,29.90
2022-10-18T04:36:54.262Z,30.20
2022-10-18T04:39:22.057Z,28.60
2022-10-18T04:41:49.821Z,31.40
2022-10-18T04:44:17.563Z,33.30
2022-10-18T04:46:45.421Z,32.30
2022-10-18T04:49:13.296Z,31.40
2022-10-18T04:51:41.107Z,34.90
2022-10-18T04:54:08.986Z,37.00
2022-10-18T04:56:36.893Z,42.10
2022-10-18T04:59:04.886Z,37.10
2022-10-18T05:01:32.713Z,37.60
2022-10-18T05:04:00.688Z,36.90
2022-10-18T05:06:28.585Z,33.60
2022-10-18T05:08:56.504Z,34.70
2022-10-18T05:11:24.323Z,30.40
2022-10-18T05:13:52.366Z,35.80
2022-10-18T05:16:20.220Z,32.30
2022-10-18T05:18:48.073Z,29.90
2022-10-18T05:21:16.809Z,33.50
2022-10-18T05:23:44.640Z,39.20
2022-10-18T05:26:12.537Z,30.50
2022-10-18T05:28:41.329Z,28.90
2022-10-18T05:31:11.666Z,30.10
2022-10-18T05:33:42.800Z,35.10
2022-10-18T05:36:11.449Z,33.30
2022-10-18T05:38:42.981Z,36.00
2022-10-18T05:41:12.582Z,40.30
2022-10-18T05:43:41.366Z,37.60
2022-10-18T05:46:14.599Z,41.70
2022-10-18T05:48:50.248Z,41.20
2022-10-18T05:51:19.279Z,39.00
2022-10-18T05:53:47.405Z,34.70
2022-10-18T05:56:15.800Z,33.60
2022-10-18T05:58:44.316Z,37.90
2022-10-18T06:01:12.217Z,41.40
2022-10-18T06:03:40.003Z,30.30
2022-10-18T06:06:10.693Z,30.90
2022-10-18T06:08:40.076Z,29.80
2022-10-18T06:11:13.263Z,32.80
2022-10-18T06:13:46.157Z,33.60
2022-10-18T06:16:17.101Z,44.50
2022-10-18T06:18:49.976Z,42.00
2022-10-18T06:21:19.051Z,39.30
2022-10-18T06:23:54.735Z,35.50
2022-10-18T06:26:23.343Z,35.40
2022-10-18T06:28:51.332Z,34.80
2022-10-18T06:31:20.728Z,34.70
2022-10-18T06:33:49.367Z,32.70
2022-10-18T06:36:19.929Z,32.00
2022-10-18T06:38:48.433Z,30.40
2022-10-18T06:41:16.775Z,28.30
2022-10-18T06:43:48.574Z,33.60
2022-10-18T06:46:17.012Z,28.80
2022-10-18T06:48:45.453Z,32.40
2022-10-18T06:51:13.602Z,34.20
2022-10-18T06:53:44.437Z,32.50
2022-10-18T06:56:16.655Z,38.50
2022-10-18T06:58:44.572Z,42.50
2022-10-18T07:01:16.117Z,34.20
2022-10-18T07:03:45.663Z,28.00
2022-10-18T07:06:15.372Z,36.30
2022-10-18T07:08:43.691Z,37.20
2022-10-18T07:11:17.425Z,35.40
2022-10-18T07:13:45.747Z,39.70
2022-10-18T07:16:18.386Z,38.30
2022-10-18T07:18:51.531Z,36.80
2022-10-18T07:21:23.946Z,39.20
2022-10-18T07:23:52.773Z,35.30
2022-10-18T07:26:29.010Z,39.50
2022-10-18T07:29:04.701Z,40.80
2022-10-18T07:31:33.492Z,32.90
2022-10-18T07:34:03.412Z,40.40
2022-10-18T07:36:31.341Z,32.40
2022-10-18T07:38:59.713Z,35.40
2022-10-18T07:41:27.681Z,37.30
2022-10-18T07:43:55.566Z,38.40
2022-10-18T07:46:23.394Z,36.90
2022-10-18T07:48:52.217Z,36.00
2022-10-18T07:51:20.897Z,35.10
2022-10-18T07:53:48.685Z,39.50
2022-10-18T07:56:21.166Z,36.40
2022-10-18T07:58:52.435Z,46.10
2022-10-18T08:01:22.441Z,32.30
2022-10-18T08:03:50.577Z,82.00
2022-10-18T08:06:20.451Z,30.60
2022-10-18T08:08:48.592Z,34.80
2022-10-18T08:11:19.311Z,35.10
2022-10-18T08:13:47.482Z,32.80
2022-10-18T08:16:22.166Z,33.70
2022-10-18T08:18:50.700Z,31.70
2022-10-18T08:21:20.260Z,35.10
2022-10-18T08:23:48.828Z,31.90
2022-10-18T08:26:20.086Z,34.60
2022-10-18T08:28:58.435Z,34.10
2022-10-18T08:31:37.614Z,34.00
2022-10-18T08:34:05.585Z,33.10
2022-10-18T08:36:34.022Z,31.30
2022-10-18T08:39:03.448Z,29.70
2022-10-18T08:41:37.024Z,34.10
2022-10-18T08:44:23.247Z,28.90
2022-10-18T08:46:55.911Z,31.20
2022-10-18T08:49:30.883Z,30.70
2022-10-18T08:51:59.004Z,33.50
2022-10-18T08:55:02.215Z,29.10
2022-10-18T08:57:31.799Z,34.00
2022-10-18T09:00:05.907Z,25.10
2022-10-18T09:02:52.674Z,34.90
2022-10-18T09:05:49.673Z,31.60
2022-10-18T09:08:38.431Z,33.70
2022-10-18T09:11:38.380Z,45.90
2022-10-18T09:14:19.603Z,39.80
2022-10-18T09:17:08.885Z,32.70
2022-10-18T09:19:56.000Z,34.90
2022-10-18T09:22:54.385Z,36.70
2022-10-18T09:25:22.465Z,36.50
2022-10-18T09:27:54.769Z,45.70
2022-10-18T09:30:49.277Z,41.00
2022-10-18T09:33:26.171Z,42.60
2022-10-18T09:36:01.214Z,45.50
2022-10-18T09:38:34.472Z,43.90
2022-10-18T09:41:09.421Z,50.80
2022-10-18T09:43:48.641Z,40.50
2022-10-18T09:46:20.377Z,39.30
2022-10-18T09:49:04.409Z,47.70
2022-10-18T09:51:38.959Z,39.80
2022-10-18T09:54:20.358Z,40.70
2022-10-18T09:56:58.349Z,45.90
2022-10-18T09:59:46.903Z,40.00
2022-10-18T10:02:23.679Z,37.50
2022-10-18T10:04:56.471Z,37.40
2022-10-18T10:07:32.542Z,41.70
2022-10-18T10:10:25.169Z,35.80
2022-10-18T10:13:17.229Z,41.30
2022-10-18T10:15:52.547Z,36.90
2022-10-18T10:18:28.502Z,37.40
2022-10-18T10:21:02.975Z,37.70
2022-10-18T10:23:37.390Z,40.90
2022-10-18T10:26:21.605Z,34.50
2022-10-18T10:28:50.606Z,40.20
2022-10-18T10:31:24.837Z,35.20
2022-10-18T10:34:03.043Z,32.30
2022-10-18T10:36:32.429Z,32.20
2022-10-18T10:39:03.236Z,34.30
2022-10-18T10:44:04.349Z,30.10
2022-10-18T10:46:36.629Z,32.80
2022-10-18T10:49:34.927Z,27.70
2022-10-18T10:52:09.350Z,33.90
2022-10-18T10:54:52.507Z,29.50
2022-10-18T10:57:27.608Z,35.40
2022-10-18T10:59:59.835Z,30.00
2022-10-18T11:02:33.758Z,31.10
2022-10-18T11:05:31.072Z,28.50
2022-10-18T11:08:02.957Z,34.80
2022-10-18T11:10:35.010Z,32.00
2022-10-18T11:13:09.970Z,31.30
2022-10-18T11:15:47.534Z,30.80
2022-10-18T11:18:27.199Z,28.20
2022-10-18T11:21:13.839Z,25.30
2022-10-18T11:23:44.263Z,26.90
2022-10-18T11:26:12.084Z,29.20
2022-10-18T11:28:46.246Z,31.80
2022-10-18T11:31:36.269Z,30.60
2022-10-18T11:34:22.998Z,31.40
2022-10-18T11:37:28.498Z,33.80
2022-10-18T11:40:36.378Z,27.80
2022-10-18T11:43:30.367Z,30.70
2022-10-18T11:46:26.763Z,24.50
2022-10-18T11:49:31.839Z,32.50
2022-10-18T11:52:13.572Z,23.70
2022-10-18T11:55:19.939Z,22.90
2022-10-18T11:58:12.971Z,28.00
2022-10-18T12:00:46.545Z,21.00
2022-10-18T12:03:29.630Z,20.60
2022-10-18T12:06:03.904Z,19.00
2022-10-18T12:08:41.883Z,26.70
2022-10-18T12:11:15.900Z,21.40
2022-10-18T12:13:53.377Z,18.90
2022-10-18T12:16:45.471Z,18.20
2022-10-18T12:19:23.368Z,16.50
2022-10-18T12:21:58.097Z,16.00
2022-10-18T12:24:30.210Z,15.40
2022-10-18T12:27:00.832Z,15.30
2022-10-18T12:29:34.975Z,17.00
2022-10-18T12:32:09.106Z,16.40
2022-10-18T12:35:00.482Z,21.90
2022-10-18T12:37:58.779Z,17.00
2022-10-18T12:40:42.808Z,13.80
2022-10-18T12:43:21.317Z,16.80
2022-10-18T12:45:51.982Z,18.60
2022-10-18T12:48:32.634Z,14.80
2022-10-18T12:51:04.960Z,15.40
2022-10-18T12:53:33.786Z,14.10
2022-10-18T12:56:29.754Z,17.90
2022-10-18T12:59:16.067Z,13.30
2022-10-18T13:01:53.002Z,11.80
2022-10-18T13:04:27.151Z,14.20
2022-10-18T13:06:57.770Z,18.80
2022-10-18T13:09:28.723Z,17.10
2022-10-18T13:12:16.790Z,17.10
2022-10-18T13:15:26.358Z,17.80
2022-10-18T13:18:33.852Z,14.20
2022-10-18T13:21:24.964Z,10.00
2022-10-18T13:24:09.968Z,15.00
2022-10-18T13:26:54.046Z,13.50
2022-10-18T13:29:37.736Z,13.20
2022-10-18T13:32:08.242Z,15.00
2022-10-18T13:34:39.051Z,13.50
2022-10-18T13:37:09.576Z,13.80
2022-10-18T13:39:39.850Z,12.00
2022-10-18T13:42:33.573Z,15.20
2022-10-18T13:45:30.872Z,16.00
2022-10-18T13:48:29.799Z,11.40
2022-10-18T13:51:27.342Z,13.00
2022-10-18T13:54:04.391Z,17.10
2022-10-18T13:56:41.404Z,10.80
2022-10-18T13:59:44.558Z,13.00
2022-10-18T14:02:57.709Z,14.70
2022-10-18T14:05:56.992Z,10.40
2022-10-18T14:11:25.048Z,11.80
2022-10-18T14:14:02.362Z,9.60
2022-10-18T14:17:17.623Z,9.40
2022-10-18T14:20:01.624Z,12.40
2022-10-18T14:22:38.044Z,12.00
2022-10-18T14:27:50.873Z,16.20
2022-10-18T14:30:21.696Z,17.10
2022-10-18T14:32:52.174Z,12.00
2022-10-18T14:35:38.154Z,11.90
2022-10-18T14:38:13.572Z,17.10
2022-10-18T14:40:41.490Z,15.50
2022-10-18T14:43:09.213Z,14.90
2022-10-18T14:45:37.069Z,19.00
2022-10-18T14:48:14.954Z,22.30
2022-10-18T14:50:50.601Z,14.30
2022-10-18T14:53:25.169Z,16.60
2022-10-18T14:56:00.772Z,16.10
2022-10-18T14:58:28.978Z,16.70
2022-10-18T15:00:57.992Z,14.40
2022-10-18T15:03:28.428Z,14.10
2022-10-18T15:05:59.971Z,13.40
2022-10-18T15:08:51.577Z,16.80
2022-10-18T15:11:20.386Z,17.20
2022-10-18T15:13:52.217Z,16.80
2022-10-18T15:16:23.160Z,15.10
2022-10-18T15:19:03.089Z,16.10
2022-10-18T15:21:31.440Z,14.60
2022-10-18T15:24:19.351Z,17.90
2022-10-18T15:26:49.529Z,17.60
2022-10-18T15:29:21.205Z,15.30
2022-10-18T15:31:50.535Z,17.60
2022-10-18T15:34:28.097Z,22.50
2022-10-18T15:36:57.078Z,18.40
2022-10-18T15:39:31.251Z,18.60
2022-10-18T15:42:01.145Z,13.30
2022-10-18T15:44:46.833Z,14.70
2022-10-18T15:47:20.512Z,13.50
2022-10-18T15:49:51.753Z,14.90
2022-10-18T15:52:43.245Z,15.70
2022-10-18T15:55:42.140Z,14.70
2022-10-18T15:58:15.130Z,18.10
2022-10-18T16:00:45.052Z,17.10
2022-10-18T16:03:13.692Z,20.20
2022-10-18T16:05:42.006Z,21.60
2022-10-18T16:08:21.633Z,18.60
2022-10-18T16:10:50.018Z,14.20
2022-10-18T16:13:18.692Z,16.80
2022-10-18T16:15:47.023Z,12.40
2022-10-18T16:18:18.153Z,14.50
2022-10-18T16:20:48.027Z,18.40
2022-10-18T16:23:25.820Z,17.30
2022-10-18T16:25:54.208Z,21.80
2022-10-18T16:28:25.040Z,15.80
2022-10-18T16:30:55.019Z,17.70
2022-10-18T16:33:23.829Z,19.20
2022-10-18T16:35:52.553Z,13.70
2022-10-18T16:38:34.189Z,17.50
2022-10-18T16:41:05.935Z,15.60
2022-10-18T16:43:35.054Z,18.00
2022-10-18T16:46:04.477Z,17.10
2022-10-18T16:48:33.136Z,18.50
2022-10-18T16:51:01.121Z,18.50
2022-10-18T16:53:28.920Z,14.50
2022-10-18T16:55:59.937Z,14.90
2022-10-18T16:58:29.655Z,16.30
2022-10-18T17:00:57.783Z,17.60
2022-10-18T17:03:26.451Z,13.80
2022-10-18T17:05:54.493Z,16.80
2022-10-18T17:08:25.926Z,12.90
2022-10-18T17:10:56.884Z,12.70
2022-10-18T17:13:26.518Z,14.10
2022-10-18T17:15:54.551Z,16.40
2022-10-18T17:18:27.702Z,27.80
2022-10-18T17:20:56.631Z,15.60
2022-10-18T17:23:24.415Z,18.80
2022-10-18T17:26:05.263Z,18.40
2022-10-18T17:28:38.492Z,16.30
2022-10-18T17:31:07.690Z,22.80
2022-10-18T17:33:35.875Z,19.10
2022-10-18T17:36:04.121Z,15.50
2022-10-18T17:38:31.869Z,19.00
2022-10-18T17:40:59.627Z,18.30
2022-10-18T17:43:28.891Z,18.80
2022-10-18T17:45:56.910Z,16.50
2022-10-18T17:48:24.899Z,17.90
2022-10-18T17:50:52.711Z,15.30
2022-10-18T17:53:23.068Z,22.80
2022-10-18T17:55:51.086Z,22.30
2022-10-18T17:58:18.813Z,18.80
2022-10-18T18:00:46.552Z,23.00
2022-10-18T18:03:14.532Z,27.00
2022-10-18T18:05:42.423Z,19.90
2022-10-18T18:08:10.180Z,17.70
2022-10-18T18:10:38.036Z,21.20
2022-10-18T18:13:06.144Z,16.70
2022-10-18T18:15:33.956Z,16.50
2022-10-18T18:18:01.727Z,19.70
2022-10-18T18:20:29.411Z,16.40
2022-10-18T18:22:57.159Z,15.30
2022-10-18T18:25:24.961Z,16.30
2022-10-18T18:27:54.293Z,18.60
2022-10-18T18:30:23.176Z,25.20
2022-10-18T18:32:51.052Z,20.40
2022-10-18T18:35:18.839Z,18.70
2022-10-18T18:37:50.419Z,21.00
2022-10-18T18:40:18.177Z,18.90
2022-10-18T18:42:56.779Z,20.30
2022-10-18T18:45:33.782Z,19.50
2022-10-18T18:48:01.537Z,30.70
2022-10-18T18:50:31.845Z,24.80
2022-10-18T18:52:59.721Z,26.10
2022-10-18T18:55:27.405Z,30.50
2022-10-18T18:57:55.134Z,27.50
2022-10-18T19:00:22.880Z,24.60
2022-10-18T19:02:50.645Z,28.90
2022-10-18T19:05:18.499Z,21.70
2022-10-18T19:07:46.299Z,30.20
2022-10-18T19:10:14.145Z,17.20
2022-10-18T19:12:41.863Z,17.70
2022-10-18T19:15:09.768Z,21.60
2022-10-18T19:17:37.666Z,23.50
2022-10-18T19:20:06.655Z,22.10
2022-10-18T19:22:34.437Z,19.40
2022-10-18T19:25:02.178Z,21.30
2022-10-18T19:27:30.033Z,20.30
2022-10-18T19:29:57.930Z,20.90
2022-10-18T19:32:25.902Z,21.40
2022-10-18T19:34:53.635Z,19.90
2022-10-18T19:37:21.440Z,26.10
2022-10-18T19:39:49.568Z,19.20
2022-10-18T19:42:20.576Z,23.00
2022-10-18T19:47:21.797Z,21.50
2022-10-18T19:49:49.667Z,20.00
2022-10-18T19:52:17.651Z,27.20
2022-10-18T19:54:45.708Z,23.50
2022-10-18T19:57:13.463Z,23.10
2022-10-18T20:02:15.261Z,26.00
2022-10-18T20:04:43.059Z,23.10
2022-10-18T20:07:10.824Z,19.80
2022-10-18T20:09:39.772Z,22.30
2022-10-18T20:12:07.550Z,21.40
2022-10-18T20:14:35.281Z,18.70
2022-10-18T20:17:03.064Z,22.00
2022-10-18T20:19:30.936Z,19.00
2022-10-18T20:21:58.766Z,21.60
2022-10-18T20:24:26.782Z,18.60
2022-10-18T20:26:54.542Z,18.00
2022-10-18T20:29:25.234Z,20.20
2022-10-18T20:31:55.608Z,21.70
2022-10-18T20:34:26.072Z,17.90
2022-10-18T20:36:55.256Z,21.40
2022-10-18T20:39:23.207Z,19.40
2022-10-18T20:41:51.001Z,24.90
2022-10-18T20:44:20.881Z,22.60
2022-10-18T20:46:48.653Z,23.80
2022-10-18T20:49:17.067Z,23.00
2022-10-18T20:51:44.933Z,21.80
2022-10-18T20:54:12.870Z,29.50
2022-10-18T20:56:40.737Z,18.30
2022-10-18T20:59:10.101Z,18.50
2022-10-18T21:01:39.451Z,18.80
2022-10-18T21:04:09.797Z,25.10
2022-10-18T21:06:41.416Z,24.10
2022-10-18T21:09:19.887Z,21.50
2022-10-18T21:11:50.756Z,21.10
2022-10-18T21:14:20.307Z,24.10
2022-10-18T21:16:49.724Z,22.40
2022-10-18T21:19:20.929Z,28.30
2022-10-18T21:21:51.323Z,25.80
2022-10-18T21:24:21.353Z,25.30
2022-10-18T21:26:49.224Z,25.90
2022-10-18T21:29:21.845Z,24.80
2022-10-18T21:31:54.132Z,21.60
2022-10-18T21:34:22.030Z,22.10
2022-10-18T21:36:49.796Z,23.20
2022-10-18T21:39:20.685Z,23.70
2022-10-18T21:41:48.938Z,23.40
2022-10-18T21:44:16.996Z,22.90
2022-10-18T21:46:46.779Z,15.30
2022-10-18T21:49:15.724Z,13.10
2022-10-18T21:51:44.408Z,18.90
2022-10-18T21:54:14.568Z,19.10
2022-10-18T21:56:42.436Z,16.60
2022-10-18T21:59:14.046Z,15.90
2022-10-18T22:01:44.139Z,12.20
2022-10-18T22:04:23.890Z,14.40
2022-10-18T22:06:52.232Z,12.30
2022-10-18T22:09:21.428Z,15.50
2022-10-18T22:11:52.715Z,13.00
2022-10-18T22:14:21.142Z,14.20
2022-10-18T22:16:49.124Z,16.20
2022-10-18T22:19:16.996Z,16.80
2022-10-18T22:21:44.759Z,12.90
2022-10-18T22:24:12.578Z,13.30
2022-10-18T22:26:42.302Z,15.20
2022-10-18T22:29:18.987Z,15.60
2022-10-18T22:31:49.439Z,10.00
2022-10-18T22:34:20.509Z,9.10
2022-10-18T22:36:48.838Z,9.90
2022-10-18T22:39:17.398Z,12.50
2022-10-18T22:41:45.371Z,13.00
2022-10-18T22:44:14.711Z,9.10
2022-10-18T22:46:42.863Z,12.60
2022-10-18T22:49:11.785Z,9.40
2022-10-18T22:51:40.875Z,14.50
2022-10-18T22:54:09.291Z,9.20
2022-10-18T22:56:37.103Z,15.60
2022-10-18T22:59:04.941Z,11.60
2022-10-18T23:01:32.698Z,9.00
2022-10-18T23:04:01.123Z,9.20
2022-10-18T23:06:31.954Z,10.40
2022-10-18T23:09:02.542Z,14.20
2022-10-18T23:11:31.295Z,8.60
2022-10-18T23:13:59.114Z,10.80
2022-10-18T23:16:29.473Z,9.10
2022-10-18T23:18:58.812Z,11.40
2022-10-18T23:21:28.176Z,10.50
2022-10-18T23:23:57.366Z,11.10
2022-10-18T23:26:27.607Z,12.40
2022-10-18T23:28:55.821Z,13.50
2022-10-18T23:31:28.081Z,9.90
2022-10-18T23:33:57.580Z,10.90
2022-10-18T23:36:26.242Z,10.90
2022-10-18T23:38:54.637Z,10.00
2022-10-18T23:41:22.923Z,11.00
2022-10-18T23:43:50.973Z,9.20
2022-10-18T23:46:19.257Z,11.20
2022-10-18T23:48:48.329Z,14.60
2022-10-18T23:51:17.127Z,13.00
2022-10-18T23:53:45.350Z,8.10
2022-10-18T23:56:15.712Z,9.20
2022-10-18T23:58:45.137Z,11.40
